Accueil
METAR-TAF:

METAR-TAF

Aéroports :

Aérodrome d'Amborovy

Majunga, Madagascar

latitude: 15-40S, longitude: 046-21E, altitude: 26 m

Observation

Le bulletin a été fait il y a 1 heure et 16 minutes, à 02:00 UTC
Vent 3 kt de sud
Température 20°C
Humidité 73%
Pression 1017 hPa
Visibilité 10 km ou plus
Quelques nuages à une hauteur de 4000 ft

METAR: FMNM 220200Z 17003KT 9999 FEW040 20/15 Q1017

Heure: 06:16 (03:16 UTC)

Prévision

Le bulletin a été fait il y a 4 heures et 16 minutes, à 23:00 UTC
Prévision valable du 22 à 00 UTC au 22 à 24 UTC
Vent 4 kt de sud-est
Visibilité 10 km ou plus
Quelques nuages à une hauteur de 2300 ft
Nuages épars à une hauteur de 4000 ft
Evoluant progressivement
du 22 à 05 UTC au 22 à 07 UTC
Vent 14 kt de sud/sud-est
Evoluant progressivement
du 22 à 14 UTC au 22 à 16 UTC
Vent 4 kt de sud-est

TAF: FMNM 212300Z 2200/2224 14004KT 9999 FEW023 SCT040 BECMG 2205/2207 16014KT BECMG 2214/2216 14004KT

Observations et prévisions météorologiques de plus de 4000 aéroports (messages METAR et TAF).

Les stations disponibles sont représentées par des disques jaunes et rouges sur la carte.

Passer la souris dessus pour voir le nom de la station.

Cliquer dessus pour voir les observations et prévisions météorologiques.

Pour changer de carte: cliquez sur les boutons verts avec une croix noire pour zoomer, sur le bouton vert avec un tiret pour effectuer un zoom arrière, ou sur les flèches vertes pour les cartes adjacentes.


METAR-TAF: